Time;durP1;ratioP1;P1;durP2;ratioP2;P2;SDS_P1;SDS_P2;PMS_P1;PMS_P2;Temp;Humidity;BMP_temperature;BMP_pressure;BME280_temperature;BME280_humidity;BME280_pressure;Samples;Min_cycle;Max_cycle;Signal;HPM_P1;HPM_P2
2022/05/24 00:00:30;;;;;;;8.70;5.65;;;14.70;99.90;;;;;;5095900;28;20531;-63
2022/05/24 00:02:56;;;;;;;9.20;6.22;;;14.70;99.90;;;;;;5113863;28;20051;-61
2022/05/24 00:05:24;;;;;;;12.52;6.00;;;14.70;99.90;;;;;;5113887;28;20043;-62
2022/05/24 00:07:50;;;;;;;8.20;6.10;;;14.70;99.90;;;;;;5112872;28;20108;-61
2022/05/24 00:10:20;;;;;;;11.90;7.18;;;14.70;99.90;;;;;;5114167;28;20043;-61
2022/05/24 00:12:45;;;;;;;9.10;6.55;;;14.70;99.90;;;;;;5095691;28;20135;-63
2022/05/24 00:15:24;;;;;;;11.57;6.50;;;14.70;99.90;;;;;;5096080;28;20121;-61
2022/05/24 00:17:57;;;;;;;10.65;6.25;;;14.60;99.90;;;;;;5113686;28;20047;-61
2022/05/24 00:20:26;;;;;;;11.18;6.82;;;14.60;99.90;;;;;;5095714;28;20087;-62
2022/05/24 00:22:53;;;;;;;8.38;5.93;;;14.60;99.90;;;;;;5095284;28;20051;-62
2022/05/24 00:25:19;;;;;;;10.43;6.55;;;14.50;99.90;;;;;;5113612;28;20089;-62
2022/05/24 00:27:46;;;;;;;8.77;6.40;;;14.40;99.90;;;;;;5113506;28;20036;-62
2022/05/24 00:30:13;;;;;;;10.05;6.43;;;14.30;99.90;;;;;;5113255;28;20044;-63
2022/05/24 00:32:39;;;;;;;9.18;6.05;;;14.40;99.90;;;;;;5095420;28;20431;-61
2022/05/24 00:35:05;;;;;;;8.05;5.60;;;14.40;99.90;;;;;;5112390;28;20043;-61
2022/05/24 00:37:33;;;;;;;9.50;6.95;;;14.40;99.90;;;;;;5113254;28;20051;-61
2022/05/24 00:39:59;;;;;;;11.73;6.75;;;14.40;99.90;;;;;;5094917;28;20463;-61
2022/05/24 00:42:29;;;;;;;10.10;6.38;;;14.30;99.90;;;;;;5113284;28;20079;-62
2022/05/24 00:45:06;;;;;;;11.25;6.30;;;14.30;99.90;;;;;;5113057;28;20044;-62
2022/05/24 00:47:48;;;;;;;11.15;6.85;;;14.30;99.90;;;;;;5113070;28;20100;-61
2022/05/24 00:50:23;;;;;;;9.35;6.10;;;14.30;99.90;;;;;;5094709;28;20122;-61
2022/05/24 00:53:07;;;;;;;10.63;6.10;;;14.30;99.90;;;;;;5113165;28;20100;-64
2022/05/24 00:56:10;;;;;;;6.80;5.55;;;14.30;99.90;;;;;;5112986;28;20054;-61
2022/05/24 00:58:36;;;;;;;8.38;5.15;;;14.30;99.90;;;;;;5112495;28;20157;-62
2022/05/24 01:01:12;;;;;;;8.77;5.35;;;14.30;99.90;;;;;;5112436;28;20484;-61
2022/05/24 01:03:37;;;;;;;8.52;5.72;;;14.20;99.90;;;;;;5112350;28;20396;-61
2022/05/24 01:06:03;;;;;;;9.10;5.05;;;14.20;99.90;;;;;;5077541;28;20130;-61
2022/05/24 01:08:32;;;;;;;6.70;5.05;;;14.20;99.90;;;;;;5094822;28;20400;-61
2022/05/24 01:11:00;;;;;;;7.55;4.88;;;14.20;99.90;;;;;;5112396;28;20051;-61
2022/05/24 01:13:28;;;;;;;9.50;5.05;;;14.10;99.90;;;;;;5112347;28;20423;-62
2022/05/24 01:15:54;;;;;;;7.45;4.50;;;14.10;99.90;;;;;;5112110;28;20051;-65
2022/05/24 01:18:21;;;;;;;6.63;4.72;;;14.00;99.90;;;;;;5077083;28;20039;-62
2022/05/24 01:20:55;;;;;;;7.00;4.43;;;14.00;99.90;;;;;;5112332;28;20429;-62
2022/05/24 01:23:24;;;;;;;7.85;4.60;;;13.90;99.90;;;;;;5112621;28;20490;-62
2022/05/24 01:26:05;;;;;;;7.82;4.53;;;13.90;99.90;;;;;;5094436;28;20054;-63
2022/05/24 01:28:53;;;;;;;6.97;4.65;;;13.80;99.90;;;;;;5112650;28;20063;-61
2022/05/24 01:31:21;;;;;;;6.50;4.55;;;13.80;99.90;;;;;;5093951;28;20058;-61
2022/05/24 01:36:35;;;;;;;;;;;13.70;99.90;;;;;;5112802;28;20047;-61
2022/05/24 01:39:04;;;;;;;8.15;4.88;;;13.60;99.90;;;;;;5111853;28;19927;-61
2022/05/24 01:41:44;;;;;;;7.22;4.50;;;13.60;99.90;;;;;;5093681;28;20126;-62
2022/05/24 01:44:11;;;;;;;8.32;5.10;;;13.60;99.90;;;;;;5112081;28;20130;-62
2022/05/24 01:46:44;;;;;;;8.00;5.05;;;13.50;99.90;;;;;;5112012;28;20357;-62
2022/05/24 01:49:20;;;;;;;8.73;5.28;;;13.50;99.90;;;;;;5111927;28;20039;-62
2022/05/24 01:51:55;;;;;;;7.90;5.25;;;13.50;99.90;;;;;;5094101;28;20075;-63
2022/05/24 01:54:20;;;;;;;;;;;13.50;99.90;;;;;;5112311;28;20171;-62
2022/05/24 01:56:55;;;;;;;8.27;5.40;;;13.50;99.90;;;;;;5094172;28;20304;-62
2022/05/24 01:59:22;;;;;;;9.75;6.05;;;13.40;99.90;;;;;;5093328;28;20122;-62
2022/05/24 02:01:50;;;;;;;6.72;5.10;;;13.40;99.90;;;;;;5111862;28;20098;-64
2022/05/24 02:04:18;;;;;;;9.18;5.50;;;13.40;99.90;;;;;;5093302;28;20052;-62
2022/05/24 02:06:56;;;;;;;8.23;5.82;;;13.30;99.90;;;;;;5112023;28;20357;-61
2022/05/24 02:09:22;;;;;;;9.02;5.35;;;13.30;99.90;;;;;;5093601;28;20051;-61
2022/05/24 02:11:47;;;;;;;8.25;5.53;;;13.30;99.90;;;;;;5112032;28;20546;-62
2022/05/24 02:14:18;;;;;;;8.10;5.15;;;13.50;99.90;;;;;;5110375;28;20153;-62
2022/05/24 02:17:08;;;;;;;11.90;6.30;;;13.30;99.90;;;;;;5111750;28;20048;-62
2022/05/24 02:19:37;;;;;;;9.27;6.18;;;13.30;99.90;;;;;;5111191;28;20535;-63
2022/05/24 02:22:09;;;;;;;10.10;6.35;;;13.20;99.90;;;;;;5111085;28;20493;-61
2022/05/24 02:24:35;;;;;;;12.13;6.13;;;13.30;99.90;;;;;;5111625;28;20073;-61
2022/05/24 02:27:02;;;;;;;8.60;5.72;;;13.30;99.90;;;;;;5093336;28;20040;-64
2022/05/24 02:29:28;;;;;;;10.57;6.40;;;13.30;99.90;;;;;;5111580;28;20166;-62
2022/05/24 02:31:54;;;;;;;11.18;6.18;;;13.30;99.90;;;;;;5111692;28;20389;-62
2022/05/24 02:34:19;;;;;;;9.25;6.00;;;13.30;99.90;;;;;;5093161;28;20097;-62
2022/05/24 02:36:45;;;;;;;12.30;6.65;;;13.30;99.90;;;;;;5093537;28;20120;-61
2022/05/24 02:39:11;;;;;;;9.43;6.03;;;13.40;99.90;;;;;;5092950;28;20044;-61
2022/05/24 02:41:37;;;;;;;8.75;6.00;;;13.40;99.90;;;;;;5111109;28;20056;-61
2022/05/24 02:44:12;;;;;;;10.55;6.95;;;13.40;99.90;;;;;;5111073;28;20047;-64
2022/05/24 02:46:41;;;;;;;9.85;6.65;;;13.40;99.90;;;;;;5111333;28;20115;-62
2022/05/24 02:49:10;;;;;;;9.60;6.38;;;13.50;99.90;;;;;;5076334;28;20120;-62
2022/05/24 02:51:37;;;;;;;13.35;7.18;;;13.50;99.90;;;;;;5111436;28;20122;-61
2022/05/24 02:54:04;;;;;;;9.88;6.65;;;13.50;99.90;;;;;;5076251;28;20503;-62
2022/05/24 02:56:30;;;;;;;10.80;7.18;;;13.50;99.90;;;;;;5110965;28;20039;-62
2022/05/24 02:58:56;;;;;;;9.68;6.90;;;13.50;99.90;;;;;;5111159;28;20062;-61
2022/05/24 03:01:25;;;;;;;11.25;7.88;;;13.50;99.90;;;;;;5092249;28;20442;-61
2022/05/24 03:03:52;;;;;;;11.02;6.80;;;13.60;99.90;;;;;;5111325;28;20043;-61
2022/05/24 03:06:20;;;;;;;13.85;7.32;;;13.60;99.90;;;;;;5110711;28;20051;-61
2022/05/24 03:14:14;;;;;;;9.00;7.20;;;13.60;99.90;;;;;;5110642;28;20054;-62
2022/05/24 03:14:18;;;;;;;10.45;7.10;;;13.60;99.90;;;;;;5110343;28;20408;-62
2022/05/24 03:16:49;;;;;;;11.77;8.30;;;13.60;99.90;;;;;;5111002;28;20094;-61
2022/05/24 03:19:15;;;;;;;11.23;7.55;;;13.60;99.90;;;;;;5110415;28;20052;-62
2022/05/24 03:21:41;;;;;;;9.93;7.13;;;13.60;99.90;;;;;;5093044;28;20070;-61
2022/05/24 03:24:08;;;;;;;10.38;7.90;;;13.70;99.90;;;;;;5111037;28;20043;-63
2022/05/24 03:26:34;;;;;;;10.85;8.27;;;13.50;99.90;;;;;;5113287;28;20083;-64
2022/05/24 03:29:00;;;;;;;12.00;8.93;;;13.70;99.90;;;;;;5114842;28;20120;-61
2022/05/24 03:31:26;;;;;;;13.23;9.10;;;13.70;99.90;;;;;;5096347;28;20058;-61
2022/05/24 03:33:52;;;;;;;11.88;8.65;;;13.70;99.90;;;;;;5079508;28;20138;-61
2022/05/24 03:36:19;;;;;;;12.68;9.15;;;13.70;99.90;;;;;;5114088;28;20118;-61
2022/05/24 03:38:46;;;;;;;18.02;10.77;;;13.70;99.90;;;;;;5096145;28;20085;-62
2022/05/24 03:41:12;;;;;;;13.00;10.70;;;13.70;99.90;;;;;;5114083;28;20043;-64
2022/05/24 03:43:38;;;;;;;15.30;11.20;;;13.70;99.90;;;;;;5114490;28;20497;-62
2022/05/24 03:46:07;;;;;;;14.90;11.13;;;13.70;99.90;;;;;;5079532;28;20157;-62
2022/05/24 03:48:33;;;;;;;15.75;11.15;;;13.80;99.90;;;;;;5113673;28;20292;-61
2022/05/24 03:50:59;;;;;;;14.75;12.00;;;13.80;99.90;;;;;;5114171;28;20387;-62
2022/05/24 03:53:25;;;;;;;17.23;11.75;;;13.80;99.90;;;;;;5113788;28;20043;-62
2022/05/24 03:55:51;;;;;;;15.98;11.77;;;13.80;99.90;;;;;;5114092;28;20404;-62
2022/05/24 03:58:18;;;;;;;17.55;12.88;;;13.90;99.90;;;;;;5113027;28;20062;-62
2022/05/24 04:00:44;;;;;;;14.98;12.82;;;13.90;99.90;;;;;;5113938;28;20044;-61
2022/05/24 04:03:10;;;;;;;18.17;13.23;;;13.90;99.90;;;;;;5113430;28;20047;-61
2022/05/24 04:05:37;;;;;;;22.08;14.48;;;13.90;99.90;;;;;;5113863;28;20082;-62
2022/05/24 04:08:03;;;;;;;17.33;14.00;;;13.90;99.90;;;;;;5114002;28;20055;-62
2022/05/24 04:10:30;;;;;;;18.17;13.80;;;13.90;99.90;;;;;;5095182;28;20043;-60
2022/05/24 04:12:56;;;;;;;20.08;15.98;;;13.90;99.90;;;;;;5078896;28;20055;-61
2022/05/24 04:15:23;;;;;;;20.40;14.43;;;13.90;99.90;;;;;;5113661;28;20115;-61
2022/05/24 04:17:51;;;;;;;19.63;14.23;;;14.00;99.90;;;;;;5095627;28;20051;-61
2022/05/24 04:20:17;;;;;;;18.83;14.45;;;14.00;99.90;;;;;;5113136;28;20104;-64
2022/05/24 04:22:43;;;;;;;20.25;15.10;;;14.00;99.90;;;;;;5113678;28;20043;-61
2022/05/24 04:25:09;;;;;;;20.45;15.18;;;14.00;99.90;;;;;;5113727;28;20091;-61
2022/05/24 04:27:35;;;;;;;18.08;15.95;;;14.00;99.90;;;;;;5095294;28;20155;-61
2022/05/24 04:30:04;;;;;;;20.45;15.63;;;14.00;99.90;;;;;;5078651;28;20055;-62
2022/05/24 04:32:30;;;;;;;20.55;16.55;;;14.00;99.90;;;;;;5078486;28;20445;-61
2022/05/24 04:34:55;;;;;;;18.75;15.85;;;14.00;99.90;;;;;;5113274;28;20078;-62
2022/05/24 04:37:21;;;;;;;20.75;15.45;;;14.00;99.90;;;;;;5112318;28;20180;-62
2022/05/24 04:39:47;;;;;;;21.33;15.90;;;14.00;99.90;;;;;;5045388;28;20078;-62
2022/05/24 04:42:18;;;;;;;17.98;14.98;;;14.10;99.90;;;;;;5095268;28;20088;-63
2022/05/24 04:44:52;;;;;;;16.42;14.20;;;14.10;99.90;;;;;;5077729;28;20541;-62
2022/05/24 04:47:20;;;;;;;19.30;14.52;;;14.10;99.90;;;;;;5113181;28;20446;-64
2022/05/24 04:49:53;;;;;;;19.58;13.75;;;14.10;99.90;;;;;;5113180;28;20048;-61
2022/05/24 04:52:20;;;;;;;22.15;13.70;;;14.20;99.90;;;;;;5113030;28;20244;-64
2022/05/24 04:54:47;;;;;;;17.02;13.50;;;14.20;99.90;;;;;;5112709;28;20081;-62
2022/05/24 04:57:13;;;;;;;18.73;13.00;;;14.20;99.90;;;;;;5095143;28;20058;-61
2022/05/24 04:59:39;;;;;;;16.20;12.57;;;14.30;99.90;;;;;;5112831;28;20067;-61
2022/05/24 05:02:06;;;;;;;16.35;12.02;;;14.30;99.90;;;;;;5113273;28;20097;-61
2022/05/24 05:04:32;;;;;;;14.27;11.68;;;14.30;99.90;;;;;;5112553;28;20083;-61
2022/05/24 05:06:58;;;;;;;15.73;11.45;;;14.30;99.90;;;;;;5112835;28;20051;-62
2022/05/24 05:09:24;;;;;;;16.10;11.40;;;14.30;99.90;;;;;;5112471;28;20038;-63
2022/05/24 05:11:50;;;;;;;16.10;12.10;;;14.40;99.90;;;;;;5094617;28;20047;-63
2022/05/24 05:14:16;;;;;;;15.40;11.27;;;14.40;99.90;;;;;;5112893;28;20054;-62
2022/05/24 05:16:41;;;;;;;16.60;11.32;;;14.50;99.90;;;;;;5112513;28;20112;-61
2022/05/24 05:19:10;;;;;;;16.77;11.95;;;14.50;99.90;;;;;;5112589;28;20047;-62
2022/05/24 05:21:38;;;;;;;12.90;10.30;;;14.50;99.90;;;;;;5112304;28;20036;-61
2022/05/24 05:24:05;;;;;;;17.35;11.80;;;14.60;99.90;;;;;;5094568;28;20054;-62
2022/05/24 05:26:31;;;;;;;15.07;10.50;;;14.60;99.90;;;;;;5112243;28;20052;-62
2022/05/24 05:28:57;;;;;;;14.52;10.00;;;14.60;99.90;;;;;;5112423;28;20500;-61
2022/05/24 05:31:26;;;;;;;13.63;10.63;;;14.70;99.90;;;;;;5112349;28;20049;-64
2022/05/24 05:33:53;;;;;;;16.65;10.10;;;14.70;99.90;;;;;;5094282;28;20051;-62
2022/05/24 05:36:19;;;;;;;15.85;10.93;;;14.80;99.90;;;;;;5093846;28;20078;-62
2022/05/24 05:38:47;;;;;;;13.45;10.00;;;14.80;99.90;;;;;;5111597;28;20096;-62
2022/05/24 05:41:33;;;;;;;14.57;10.60;;;14.90;99.90;;;;;;5094158;28;20055;-61
2022/05/24 05:43:59;;;;;;;14.88;10.55;;;14.90;99.90;;;;;;5111614;28;20059;-61
2022/05/24 05:46:26;;;;;;;14.68;9.57;;;15.00;99.90;;;;;;5111991;28;20054;-65
2022/05/24 05:48:52;;;;;;;14.95;10.77;;;14.90;99.90;;;;;;5111655;28;20468;-62
2022/05/24 05:51:19;;;;;;;13.75;9.73;;;14.90;99.90;;;;;;5112137;28;20088;-62
2022/05/24 05:53:45;;;;;;;15.30;10.57;;;14.90;99.90;;;;;;5111766;28;20054;-62
2022/05/24 05:56:17;;;;;;;14.45;10.55;;;14.80;99.90;;;;;;5111466;28;20039;-61
2022/05/24 05:58:44;;;;;;;15.43;11.20;;;14.70;99.90;;;;;;5092856;28;20091;-61
2022/05/24 06:01:21;;;;;;;16.13;10.45;;;14.70;99.90;;;;;;5093770;28;20089;-61
2022/05/24 06:03:46;;;;;;;16.63;11.20;;;14.70;99.90;;;;;;5111430;28;20055;-62
2022/05/24 06:06:17;;;;;;;15.32;11.45;;;14.70;99.90;;;;;;5093054;28;20039;-61
2022/05/24 06:08:43;;;;;;;16.58;11.63;;;14.60;99.90;;;;;;5111384;28;20059;-61
2022/05/24 06:11:09;;;;;;;17.17;11.75;;;14.60;99.90;;;;;;5093446;28;20040;-61
2022/05/24 06:13:34;;;;;;;19.45;11.18;;;14.50;99.90;;;;;;5092690;28;20066;-63
2022/05/24 06:16:00;;;;;;;17.02;12.65;;;14.50;99.90;;;;;;5076440;28;20047;-64
2022/05/24 06:18:26;;;;;;;19.08;12.57;;;14.40;99.90;;;;;;5093107;28;20047;-62
2022/05/24 06:20:51;;;;;;;20.38;12.80;;;14.40;99.90;;;;;;5110911;28;20043;-62
2022/05/24 06:23:17;;;;;;;18.05;12.88;;;14.30;99.90;;;;;;5093454;28;20039;-62
2022/05/24 06:25:43;;;;;;;17.33;12.32;;;14.30;99.90;;;;;;5111037;28;20401;-62
2022/05/24 06:28:13;;;;;;;18.77;13.48;;;14.20;99.90;;;;;;5111330;28;20055;-63
2022/05/24 06:30:39;;;;;;;14.80;11.77;;;14.30;99.90;;;;;;5111024;28;20039;-62
2022/05/24 06:33:05;;;;;;;19.75;13.38;;;14.30;99.90;;;;;;5111484;28;20046;-62
2022/05/24 06:35:31;;;;;;;20.23;12.00;;;14.20;99.90;;;;;;5111398;28;20043;-65
2022/05/24 06:37:57;;;;;;;16.75;11.75;;;14.10;99.90;;;;;;5092829;28;20085;-62
2022/05/24 06:40:23;;;;;;;17.20;11.43;;;14.00;99.90;;;;;;5093711;28;20047;-63
2022/05/24 06:42:49;;;;;;;12.30;9.77;;;14.00;99.90;;;;;;5111081;28;20039;-63
2022/05/24 06:45:15;;;;;;;12.55;9.68;;;14.00;99.90;;;;;;5111137;28;20431;-63
2022/05/24 06:47:41;;;;;;;15.23;11.02;;;14.00;99.90;;;;;;5110531;28;20071;-62
2022/05/24 06:50:08;;;;;;;13.05;9.98;;;14.00;99.90;;;;;;5093238;28;20087;-62
2022/05/24 06:52:34;;;;;;;16.95;10.13;;;14.00;99.90;;;;;;5093104;28;20047;-65
2022/05/24 06:55:00;;;;;;;13.10;10.60;;;14.10;99.90;;;;;;5093319;28;20047;-61
2022/05/24 06:57:25;;;;;;;13.43;9.75;;;14.20;99.90;;;;;;5093069;28;20044;-63
2022/05/24 07:02:36;;;;;;;17.23;10.15;;;14.20;99.90;;;;;;5115281;28;20048;-64
2022/05/24 07:05:06;;;;;;;13.73;9.52;;;14.20;99.90;;;;;;5113238;28;20051;-61
2022/05/24 07:07:33;;;;;;;14.13;9.68;;;14.30;99.90;;;;;;5114032;28;20598;-61
2022/05/24 07:10:00;;;;;;;15.27;10.48;;;14.30;99.90;;;;;;5114551;28;20082;-61
2022/05/24 07:12:26;;;;;;;11.90;9.52;;;14.30;99.90;;;;;;5097188;28;20058;-61
2022/05/24 07:14:53;;;;;;;12.13;9.48;;;14.40;99.90;;;;;;5096722;28;20395;-66
2022/05/24 07:17:20;;;;;;;13.20;9.20;;;14.50;99.90;;;;;;5114510;28;20047;-62
2022/05/24 07:19:46;;;;;;;14.43;11.20;;;14.60;99.90;;;;;;5114571;28;20044;-63
2022/05/24 07:22:14;;;;;;;17.55;11.55;;;14.70;99.90;;;;;;5114696;28;20087;-62
2022/05/24 07:24:40;;;;;;;14.77;9.32;;;14.70;99.90;;;;;;5096238;28;20526;-65
2022/05/24 07:27:10;;;;;;;13.55;9.70;;;15.00;99.90;;;;;;5114756;28;20475;-61
2022/05/24 07:29:36;;;;;;;13.68;8.88;;;15.20;99.90;;;;;;5096825;28;20147;-62
2022/05/24 07:32:04;;;;;;;13.43;8.45;;;15.30;99.90;;;;;;5079204;28;20054;-63
2022/05/24 07:34:30;;;;;;;15.20;7.63;;;15.30;99.90;;;;;;5114795;28;20050;-63
2022/05/24 07:36:57;;;;;;;11.15;7.20;;;15.30;99.90;;;;;;5114440;28;20048;-64
2022/05/24 07:39:23;;;;;;;14.02;7.43;;;15.20;99.90;;;;;;5114503;28;20047;-63
2022/05/24 07:47:17;;;;;;;8.35;5.28;;;15.10;99.90;;;;;;5114613;28;20048;-63
2022/05/24 07:49:43;;;;;;;11.57;5.47;;;15.10;99.90;;;;;;5114179;28;20134;-66
2022/05/24 07:52:08;;;;;;;11.35;5.60;;;15.00;99.90;;;;;;5114085;28;20487;-63
2022/05/24 07:54:34;;;;;;;11.95;5.28;;;14.90;99.90;;;;;;5096465;28;20047;-62
2022/05/24 07:57:01;;;;;;;12.63;5.13;;;14.90;99.90;;;;;;5095712;28;20392;-62
2022/05/24 07:59:27;;;;;;;11.70;4.93;;;14.90;99.90;;;;;;5114204;28;20546;-63
2022/05/24 08:01:53;;;;;;;9.73;4.45;;;14.80;99.90;;;;;;5095898;28;20081;-61
2022/05/24 08:04:20;;;;;;;12.05;5.03;;;14.70;99.90;;;;;;5114258;28;20130;-61
2022/05/24 08:06:46;;;;;;;11.07;4.72;;;14.80;99.90;;;;;;5113708;28;20047;-63
2022/05/24 08:09:12;;;;;;;10.45;4.97;;;14.70;99.90;;;;;;5114154;28;20040;-66
2022/05/24 08:11:38;;;;;;;10.48;5.25;;;14.60;99.90;;;;;;5113028;28;20145;-64
2022/05/24 08:14:06;;;;;;;10.40;5.53;;;14.60;99.90;;;;;;5095381;28;20047;-62
2022/05/24 08:16:32;;;;;;;11.00;6.20;;;14.60;99.90;;;;;;5095751;28;20043;-61
2022/05/24 08:18:58;;;;;;;11.02;6.13;;;14.60;99.90;;;;;;5113937;28;20048;-62
2022/05/24 08:21:26;;;;;;;8.70;6.00;;;14.50;99.90;;;;;;5114033;28;20044;-63
2022/05/24 08:23:51;;;;;;;10.00;6.63;;;14.50;99.90;;;;;;5113528;28;20055;-64
2022/05/24 08:26:18;;;;;;;10.13;5.90;;;14.40;99.90;;;;;;5095831;28;20043;-63
2022/05/24 08:28:47;;;;;;;11.98;6.35;;;14.40;99.90;;;;;;5095509;28;20046;-64
2022/05/24 08:31:14;;;;;;;10.30;6.10;;;14.30;99.90;;;;;;5113256;28;20484;-62
2022/05/24 08:33:40;;;;;;;7.20;5.50;;;14.30;99.90;;;;;;5094756;28;20058;-63
2022/05/24 08:36:06;;;;;;;10.63;6.03;;;14.30;99.90;;;;;;5112819;28;20122;-62
2022/05/24 08:38:32;;;;;;;11.30;6.60;;;14.20;99.90;;;;;;5113429;28;20074;-61
2022/05/24 08:41:03;;;;;;;12.00;6.50;;;14.20;99.90;;;;;;5112771;28;20534;-62
2022/05/24 08:43:36;;;;;;;12.38;6.25;;;14.20;99.90;;;;;;5113147;28;20054;-62
2022/05/24 08:49:05;;;;;;;12.45;7.55;;;14.10;99.90;;;;;;5112741;28;20051;-63
2022/05/24 08:51:38;;;;;;;15.15;7.18;;;14.10;99.90;;;;;;5113231;28;20427;-61
2022/05/24 08:54:11;;;;;;;12.48;6.93;;;14.10;99.90;;;;;;5112467;28;20130;-63
2022/05/24 08:57:02;;;;;;;13.60;7.88;;;14.10;99.90;;;;;;5113180;28;20044;-61
2022/05/24 08:59:32;;;;;;;13.55;6.53;;;14.10;99.90;;;;;;5112645;28;20120;-62
2022/05/24 09:01:59;;;;;;;13.65;7.78;;;14.10;99.90;;;;;;5112772;28;20051;-63
2022/05/24 09:04:26;;;;;;;13.60;8.40;;;14.20;99.90;;;;;;5094883;28;20384;-62
2022/05/24 09:06:51;;;;;;;12.70;8.48;;;14.20;99.90;;;;;;5112721;28;20097;-66
2022/05/24 09:09:35;;;;;;;12.73;8.05;;;14.20;99.90;;;;;;5112974;28;20047;-62
2022/05/24 09:12:25;;;;;;;11.30;7.95;;;14.30;99.90;;;;;;5112596;28;20040;-62
2022/05/24 09:14:57;;;;;;;12.07;7.82;;;14.40;99.90;;;;;;5095081;28;20445;-62
2022/05/24 09:17:51;;;;;;;12.10;7.22;;;14.40;99.90;;;;;;5094582;28;20121;-61
2022/05/24 09:20:34;;;;;;;11.45;8.20;;;14.50;99.90;;;;;;5112423;28;20047;-61
2022/05/24 09:23:25;;;;;;;12.07;8.52;;;14.50;99.90;;;;;;5111914;28;20044;-62
2022/05/24 09:26:00;;;;;;;11.43;8.35;;;14.60;99.90;;;;;;5112716;28;20061;-61
2022/05/24 09:28:54;;;;;;;12.70;9.30;;;14.70;99.90;;;;;;5112473;28;20040;-61
2022/05/24 09:31:26;;;;;;;9.95;6.35;;;14.80;99.90;;;;;;5101478;28;20056;-63
2022/05/24 09:33:58;;;;;;;6.93;5.10;;;14.70;99.90;;;;;;5111980;28;20043;-62
2022/05/24 09:36:53;;;;;;;6.43;5.20;;;14.60;99.90;;;;;;5111857;28;20097;-63
2022/05/24 09:39:33;;;;;;;8.13;4.50;;;14.40;99.90;;;;;;5092954;28;20133;-62
2022/05/24 09:42:05;;;;;;;6.15;3.67;;;14.20;99.90;;;;;;5111546;28;20427;-62
2022/05/24 09:45:30;;;;;;;5.38;3.80;;;14.10;99.90;;;;;;5111911;28;20040;-61
2022/05/24 09:47:59;;;;;;;5.60;3.53;;;14.10;99.90;;;;;;5091215;28;20408;-64
2022/05/24 09:50:34;;;;;;;3.92;2.80;;;14.20;99.90;;;;;;5112470;28;20051;-62
2022/05/24 09:53:03;;;;;;;5.20;2.60;;;14.10;99.90;;;;;;5111844;28;20073;-62
2022/05/24 09:55:38;;;;;;;7.75;2.53;;;14.20;99.90;;;;;;5112235;28;20043;-61
2022/05/24 09:58:30;;;;;;;4.65;2.60;;;14.30;99.90;;;;;;5111696;28;20040;-60
2022/05/24 10:01:02;;;;;;;5.05;2.20;;;14.40;99.90;;;;;;5112198;28;20130;-61
2022/05/24 10:03:36;;;;;;;5.45;2.22;;;14.60;99.90;;;;;;5111862;28;20488;-61
2022/05/24 10:06:25;;;;;;;3.80;2.13;;;14.70;99.90;;;;;;5093673;28;20048;-61
2022/05/24 10:08:53;;;;;;;3.85;2.33;;;14.90;99.90;;;;;;5111949;28;20343;-61
2022/05/24 10:11:49;;;;;;;5.50;2.75;;;15.00;99.90;;;;;;5111820;28;20134;-61
2022/05/24 10:14:24;;;;;;;5.13;2.40;;;15.10;99.90;;;;;;5111851;28;20079;-61
2022/05/24 10:16:56;;;;;;;5.85;2.97;;;15.10;99.90;;;;;;5111743;28;20051;-60
2022/05/24 10:19:45;;;;;;;4.75;2.55;;;15.20;99.90;;;;;;5111257;28;20075;-62
2022/05/24 10:22:47;;;;;;;3.85;2.53;;;15.40;99.90;;;;;;5093603;28;20389;-60
2022/05/24 10:25:20;;;;;;;4.22;2.35;;;15.60;99.90;;;;;;5111564;28;20047;-60
2022/05/24 10:28:04;;;;;;;4.30;2.28;;;15.80;99.90;;;;;;5093813;28;20086;-60
2022/05/24 10:30:49;;;;;;;4.37;2.60;;;15.70;99.90;;;;;;5111641;28;20075;-59
2022/05/24 10:39:41;;;;;;;4.95;2.58;;;15.60;99.90;;;;;;5092938;28;20048;-64
2022/05/24 10:42:17;;;;;;;4.68;2.40;;;15.60;99.90;;;;;;5111138;28;20192;-61
2022/05/24 10:44:48;;;;;;;5.10;2.40;;;15.60;99.90;;;;;;5093270;28;20396;-63
2022/05/24 10:47:32;;;;;;;5.85;2.83;;;15.50;99.90;;;;;;5109672;28;20044;-61
2022/05/24 10:50:03;;;;;;;4.73;2.63;;;15.30;99.90;;;;;;5110918;28;20051;-61
2022/05/24 10:52:35;;;;;;;4.25;2.25;;;15.20;99.90;;;;;;5093346;28;20296;-60
2022/05/24 10:55:14;;;;;;;5.53;2.83;;;15.10;99.90;;;;;;5111452;28;20051;-60
2022/05/24 10:57:48;;;;;;;4.60;3.05;;;15.00;99.90;;;;;;5111486;28;20054;-60
2022/05/24 11:00:18;;;;;;;3.95;2.55;;;15.00;99.90;;;;;;5092741;28;20131;-61
2022/05/24 11:03:02;;;;;;;5.90;2.42;;;15.10;99.90;;;;;;5111440;28;20047;-60
2022/05/24 11:05:50;;;;;;;6.55;2.67;;;15.30;99.90;;;;;;5093315;28;20051;-61
2022/05/24 11:08:34;;;;;;;4.25;2.40;;;15.60;99.90;;;;;;5111334;28;20044;-61
2022/05/24 11:11:29;;;;;;;4.50;2.40;;;15.70;99.90;;;;;;5111559;28;20044;-61
2022/05/24 11:14:12;;;;;;;5.70;2.65;;;16.00;99.90;;;;;;5111560;28;20109;-62
2022/05/24 11:16:44;;;;;;;4.72;2.78;;;16.10;99.90;;;;;;5111407;28;20051;-62
2022/05/24 11:19:14;;;;;;;4.18;2.53;;;16.30;99.90;;;;;;5092614;28;20044;-61
2022/05/24 11:21:46;;;;;;;5.57;2.70;;;16.30;99.90;;;;;;5111790;28;20047;-61
2022/05/24 11:24:40;;;;;;;4.63;2.35;;;16.10;99.90;;;;;;5076312;28;20051;-61
2022/05/24 11:27:10;;;;;;;5.22;2.42;;;16.00;99.90;;;;;;5111341;28;20078;-60
2022/05/24 11:29:56;;;;;;;5.13;2.15;;;15.80;99.90;;;;;;5111093;28;20139;-60
2022/05/24 11:32:43;;;;;;;3.63;2.20;;;15.80;99.90;;;;;;5076162;28;20109;-60
2022/05/24 11:35:18;;;;;;;4.38;2.70;;;15.70;99.90;;;;;;5110798;28;20073;-66
2022/05/24 11:37:46;;;;;;;3.53;2.50;;;15.10;99.90;;;;;;5111083;28;20126;-60
2022/05/24 11:40:40;;;;;;;5.22;2.92;;;14.90;99.90;;;;;;5092711;28;20040;-59
2022/05/24 11:43:10;;;;;;;3.88;2.50;;;14.70;99.90;;;;;;5076382;28;20039;-61
2022/05/24 11:45:54;;;;;;;7.47;3.08;;;14.80;99.90;;;;;;5092921;28;20050;-59
2022/05/24 11:48:20;;;;;;;4.25;2.50;;;14.90;99.90;;;;;;5114533;28;20052;-59
2022/05/24 11:50:51;;;;;;;4.18;1.95;;;15.10;99.90;;;;;;5096200;28;20127;-60
2022/05/24 11:53:37;;;;;;;4.45;2.20;;;15.30;99.90;;;;;;5114277;28;20039;-61
2022/05/24 11:56:09;;;;;;;4.18;2.38;;;15.40;99.90;;;;;;5114686;28;20048;-62
2022/05/24 11:58:35;;;;;;;15.20;3.63;;;15.50;99.90;;;;;;5113793;28;20055;-60
2022/05/24 12:01:15;;;;;;;3.65;1.98;;;15.70;99.90;;;;;;5114420;28;20059;-61
2022/05/24 12:10:31;;;;;;;3.72;1.83;;;16.10;99.90;;;;;;5114285;28;20517;-60
2022/05/24 12:13:03;;;;;;;4.28;1.60;;;15.90;99.90;;;;;;5096151;28;20052;-61
2022/05/24 12:15:33;;;;;;;3.95;1.83;;;15.70;99.90;;;;;;5114060;28;20155;-60
2022/05/24 12:17:58;;;;;;;5.20;1.30;;;15.50;99.90;;;;;;5096117;28;20077;-61
2022/05/24 12:20:46;;;;;;;4.32;1.40;;;15.30;99.90;;;;;;5113875;28;20047;-60
2022/05/24 12:23:30;;;;;;;6.65;1.50;;;15.40;99.90;;;;;;5097053;28;20066;-60
2022/05/24 12:26:15;;;;;;;4.85;1.73;;;15.40;99.90;;;;;;5114380;28;20047;-59
2022/05/24 12:28:53;;;;;;;5.88;1.75;;;15.50;99.90;;;;;;5114068;28;20075;-61
2022/05/24 12:31:22;;;;;;;7.40;2.10;;;15.50;99.90;;;;;;5095701;28;20381;-61
2022/05/24 12:33:55;;;;;;;4.75;1.58;;;15.50;99.90;;;;;;5095556;28;20127;-61
2022/05/24 12:36:39;;;;;;;3.90;1.40;;;15.70;99.90;;;;;;5113414;28;20043;-61
2022/05/24 12:39:08;;;;;;;3.55;1.50;;;15.80;99.90;;;;;;5095655;28;20425;-60
2022/05/24 12:41:39;;;;;;;4.00;1.60;;;16.00;99.90;;;;;;5113320;28;20461;-60
2022/05/24 12:44:17;;;;;;;4.22;1.40;;;15.90;99.90;;;;;;5095179;28;20393;-61
2022/05/24 12:46:49;;;;;;;14.77;2.20;;;16.00;99.90;;;;;;5095629;28;20100;-60
2022/05/24 12:49:24;;;;;;;2.95;1.50;;;15.80;99.90;;;;;;5113623;28;20048;-60
2022/05/24 12:52:15;;;;;;;7.07;2.22;;;15.80;99.90;;;;;;5078434;28;20054;-60
2022/05/24 12:54:47;;;;;;;5.55;1.77;;;16.00;99.90;;;;;;5111967;28;20184;-60
2022/05/24 12:57:19;;;;;;;4.00;1.35;;;16.20;99.90;;;;;;5095361;28;20088;-59
2022/05/24 13:00:18;;;;;;;3.58;1.60;;;16.40;99.90;;;;;;5112497;28;20127;-61
2022/05/24 13:02:47;;;;;;;5.38;1.75;;;16.30;99.90;;;;;;5112930;28;20151;-61
2022/05/24 13:05:28;;;;;;;5.95;1.42;;;16.30;99.90;;;;;;5113243;28;20050;-61
2022/05/24 13:07:53;;;;;;;3.08;1.65;;;16.30;99.90;;;;;;5113145;28;20043;-62
2022/05/24 13:10:23;;;;;;;4.82;1.55;;;16.30;99.90;;;;;;5113222;28;20157;-61
2022/05/24 13:12:52;;;;;;;6.75;1.75;;;16.30;99.90;;;;;;5112880;28;20476;-61
2022/05/24 13:15:21;;;;;;;5.10;1.83;;;16.20;99.90;;;;;;5095157;28;20062;-61
2022/05/24 13:17:51;;;;;;;3.95;1.55;;;16.20;99.90;;;;;;5112868;28;20472;-60
2022/05/24 13:20:17;;;;;;;1.77;1.20;;;16.10;99.90;;;;;;5095027;28;20046;-60
2022/05/24 13:22:50;;;;;;;4.22;1.40;;;16.00;99.90;;;;;;5112579;28;20044;-60
2022/05/24 13:25:22;;;;;;;5.05;1.50;;;16.10;99.90;;;;;;5112868;28;20044;-61
2022/05/24 13:27:53;;;;;;;4.43;1.10;;;16.20;99.90;;;;;;5112538;28;20567;-61